sensor_id;sensor_type;location;lat;lon;timestamp;P1;durP1;ratioP1;P2;durP2;ratioP2
68089;SDS011;54880;50.986;6.990;2022-11-25T00:01:53;11.13;;;3.00;;
68089;SDS011;54880;50.986;6.990;2022-11-25T00:04:18;12.00;;;2.70;;
68089;SDS011;54880;50.986;6.990;2022-11-25T00:06:43;16.30;;;2.87;;
68089;SDS011;54880;50.986;6.990;2022-11-25T00:09:09;14.30;;;2.90;;
68089;SDS011;54880;50.986;6.990;2022-11-25T00:11:35;12.85;;;3.30;;
68089;SDS011;54880;50.986;6.990;2022-11-25T00:14:01;18.30;;;2.87;;
68089;SDS011;54880;50.986;6.990;2022-11-25T00:16:26;11.77;;;2.70;;
68089;SDS011;54880;50.986;6.990;2022-11-25T00:18:52;19.15;;;3.33;;
68089;SDS011;54880;50.986;6.990;2022-11-25T00:21:18;10.90;;;2.85;;
68089;SDS011;54880;50.986;6.990;2022-11-25T00:23:48;13.63;;;3.30;;
68089;SDS011;54880;50.986;6.990;2022-11-25T00:26:15;12.50;;;2.92;;
68089;SDS011;54880;50.986;6.990;2022-11-25T00:28:41;17.70;;;3.58;;
68089;SDS011;54880;50.986;6.990;2022-11-25T00:31:08;10.80;;;2.70;;
68089;SDS011;54880;50.986;6.990;2022-11-25T00:33:33;14.55;;;2.90;;
68089;SDS011;54880;50.986;6.990;2022-11-25T00:36:00;13.65;;;2.70;;
68089;SDS011;54880;50.986;6.990;2022-11-25T00:38:25;15.87;;;3.10;;
68089;SDS011;54880;50.986;6.990;2022-11-25T00:40:51;15.43;;;2.97;;
68089;SDS011;54880;50.986;6.990;2022-11-25T00:43:36;12.32;;;2.70;;
68089;SDS011;54880;50.986;6.990;2022-11-25T00:46:20;17.50;;;3.55;;
68089;SDS011;54880;50.986;6.990;2022-11-25T00:48:45;13.37;;;2.70;;
68089;SDS011;54880;50.986;6.990;2022-11-25T00:51:11;9.67;;;2.80;;
68089;SDS011;54880;50.986;6.990;2022-11-25T00:53:36;15.73;;;3.22;;
68089;SDS011;54880;50.986;6.990;2022-11-25T00:56:02;10.57;;;2.37;;
68089;SDS011;54880;50.986;6.990;2022-11-25T00:58:40;13.33;;;2.47;;
68089;SDS011;54880;50.986;6.990;2022-11-25T01:01:05;12.05;;;2.35;;
68089;SDS011;54880;50.986;6.990;2022-11-25T01:03:31;14.23;;;2.80;;
68089;SDS011;54880;50.986;6.990;2022-11-25T01:06:00;12.87;;;2.77;;
68089;SDS011;54880;50.986;6.990;2022-11-25T01:08:25;12.35;;;2.83;;
68089;SDS011;54880;50.986;6.990;2022-11-25T01:10:56;13.43;;;2.67;;
68089;SDS011;54880;50.986;6.990;2022-11-25T01:13:22;16.55;;;3.10;;
68089;SDS011;54880;50.986;6.990;2022-11-25T01:15:47;14.77;;;2.83;;
68089;SDS011;54880;50.986;6.990;2022-11-25T01:18:12;11.60;;;2.43;;
68089;SDS011;54880;50.986;6.990;2022-11-25T01:20:37;14.27;;;2.70;;
68089;SDS011;54880;50.986;6.990;2022-11-25T01:23:03;13.00;;;2.77;;
68089;SDS011;54880;50.986;6.990;2022-11-25T01:25:28;12.13;;;2.40;;
68089;SDS011;54880;50.986;6.990;2022-11-25T01:27:53;11.27;;;2.80;;
68089;SDS011;54880;50.986;6.990;2022-11-25T01:30:18;12.53;;;2.73;;
68089;SDS011;54880;50.986;6.990;2022-11-25T01:32:43;15.67;;;2.97;;
68089;SDS011;54880;50.986;6.990;2022-11-25T01:35:09;12.37;;;2.70;;
68089;SDS011;54880;50.986;6.990;2022-11-25T01:37:35;16.10;;;2.80;;
68089;SDS011;54880;50.986;6.990;2022-11-25T01:40:02;15.93;;;2.95;;
68089;SDS011;54880;50.986;6.990;2022-11-25T01:42:28;14.73;;;2.83;;
68089;SDS011;54880;50.986;6.990;2022-11-25T01:45:21;11.65;;;2.40;;
68089;SDS011;54880;50.986;6.990;2022-11-25T01:47:53;14.15;;;2.72;;
68089;SDS011;54880;50.986;6.990;2022-11-25T01:50:19;15.23;;;2.90;;
68089;SDS011;54880;50.986;6.990;2022-11-25T01:52:46;14.25;;;2.63;;
68089;SDS011;54880;50.986;6.990;2022-11-25T01:55:16;16.30;;;3.00;;
68089;SDS011;54880;50.986;6.990;2022-11-25T01:57:54;13.00;;;2.95;;
68089;SDS011;54880;50.986;6.990;2022-11-25T02:00:22;13.93;;;3.00;;
68089;SDS011;54880;50.986;6.990;2022-11-25T02:02:48;13.90;;;3.00;;
68089;SDS011;54880;50.986;6.990;2022-11-25T02:05:15;9.17;;;2.50;;
68089;SDS011;54880;50.986;6.990;2022-11-25T02:07:42;12.90;;;2.65;;
68089;SDS011;54880;50.986;6.990;2022-11-25T02:10:11;10.38;;;2.70;;
68089;SDS011;54880;50.986;6.990;2022-11-25T02:12:42;15.93;;;2.78;;
68089;SDS011;54880;50.986;6.990;2022-11-25T02:15:09;8.90;;;2.65;;
68089;SDS011;54880;50.986;6.990;2022-11-25T02:17:36;11.67;;;2.50;;
68089;SDS011;54880;50.986;6.990;2022-11-25T02:20:03;12.85;;;3.33;;
68089;SDS011;54880;50.986;6.990;2022-11-25T02:25:21;11.65;;;2.60;;
68089;SDS011;54880;50.986;6.990;2022-11-25T02:27:49;13.20;;;3.03;;
68089;SDS011;54880;50.986;6.990;2022-11-25T02:30:15;16.42;;;2.95;;
68089;SDS011;54880;50.986;6.990;2022-11-25T02:32:42;8.87;;;2.60;;
68089;SDS011;54880;50.986;6.990;2022-11-25T02:35:24;17.05;;;3.15;;
68089;SDS011;54880;50.986;6.990;2022-11-25T02:37:50;12.00;;;2.93;;
68089;SDS011;54880;50.986;6.990;2022-11-25T02:40:16;14.38;;;3.15;;
68089;SDS011;54880;50.986;6.990;2022-11-25T02:42:42;12.13;;;2.37;;
68089;SDS011;54880;50.986;6.990;2022-11-25T02:45:08;12.18;;;2.58;;
68089;SDS011;54880;50.986;6.990;2022-11-25T02:47:37;13.60;;;2.92;;
68089;SDS011;54880;50.986;6.990;2022-11-25T02:50:03;13.33;;;3.00;;
68089;SDS011;54880;50.986;6.990;2022-11-25T02:52:28;11.73;;;3.67;;
68089;SDS011;54880;50.986;6.990;2022-11-25T02:54:54;12.07;;;2.67;;
68089;SDS011;54880;50.986;6.990;2022-11-25T02:57:19;14.23;;;2.67;;
68089;SDS011;54880;50.986;6.990;2022-11-25T02:59:45;14.18;;;3.30;;
68089;SDS011;54880;50.986;6.990;2022-11-25T03:02:12;15.17;;;3.30;;
68089;SDS011;54880;50.986;6.990;2022-11-25T03:04:37;14.25;;;2.75;;
68089;SDS011;54880;50.986;6.990;2022-11-25T03:07:03;11.07;;;2.65;;
68089;SDS011;54880;50.986;6.990;2022-11-25T03:09:28;9.45;;;2.95;;
68089;SDS011;54880;50.986;6.990;2022-11-25T03:11:53;13.87;;;2.53;;
68089;SDS011;54880;50.986;6.990;2022-11-25T03:14:37;19.10;;;2.90;;
68089;SDS011;54880;50.986;6.990;2022-11-25T03:17:02;12.27;;;2.87;;
68089;SDS011;54880;50.986;6.990;2022-11-25T03:19:28;12.75;;;3.08;;
68089;SDS011;54880;50.986;6.990;2022-11-25T03:21:53;15.47;;;3.73;;
68089;SDS011;54880;50.986;6.990;2022-11-25T03:24:18;17.03;;;2.97;;
68089;SDS011;54880;50.986;6.990;2022-11-25T03:26:46;11.40;;;2.73;;
68089;SDS011;54880;50.986;6.990;2022-11-25T03:29:11;13.53;;;3.17;;
68089;SDS011;54880;50.986;6.990;2022-11-25T03:31:37;13.40;;;3.28;;
68089;SDS011;54880;50.986;6.990;2022-11-25T03:34:06;10.85;;;2.40;;
68089;SDS011;54880;50.986;6.990;2022-11-25T03:36:31;8.63;;;2.50;;
68089;SDS011;54880;50.986;6.990;2022-11-25T03:38:56;13.33;;;3.30;;
68089;SDS011;54880;50.986;6.990;2022-11-25T03:41:22;14.00;;;2.90;;
68089;SDS011;54880;50.986;6.990;2022-11-25T03:43:47;16.27;;;3.10;;
68089;SDS011;54880;50.986;6.990;2022-11-25T03:46:13;14.10;;;3.00;;
68089;SDS011;54880;50.986;6.990;2022-11-25T03:48:38;14.50;;;3.10;;
68089;SDS011;54880;50.986;6.990;2022-11-25T03:51:06;14.63;;;2.87;;
68089;SDS011;54880;50.986;6.990;2022-11-25T03:53:32;11.93;;;2.78;;
68089;SDS011;54880;50.986;6.990;2022-11-25T03:56:00;12.02;;;3.10;;
68089;SDS011;54880;50.986;6.990;2022-11-25T03:58:25;14.03;;;2.83;;
68089;SDS011;54880;50.986;6.990;2022-11-25T04:00:51;14.17;;;2.97;;
68089;SDS011;54880;50.986;6.990;2022-11-25T04:03:16;12.70;;;3.13;;
68089;SDS011;54880;50.986;6.990;2022-11-25T04:05:42;11.70;;;2.40;;
68089;SDS011;54880;50.986;6.990;2022-11-25T04:08:07;15.43;;;2.90;;
68089;SDS011;54880;50.986;6.990;2022-11-25T04:10:34;9.80;;;2.83;;
68089;SDS011;54880;50.986;6.990;2022-11-25T04:13:00;16.27;;;2.80;;
68089;SDS011;54880;50.986;6.990;2022-11-25T04:15:32;19.02;;;2.80;;
68089;SDS011;54880;50.986;6.990;2022-11-25T04:17:58;13.25;;;2.72;;
68089;SDS011;54880;50.986;6.990;2022-11-25T04:20:23;12.40;;;2.60;;
68089;SDS011;54880;50.986;6.990;2022-11-25T04:22:55;17.77;;;2.90;;
68089;SDS011;54880;50.986;6.990;2022-11-25T04:25:21;16.52;;;3.08;;
68089;SDS011;54880;50.986;6.990;2022-11-25T04:27:46;10.73;;;2.33;;
68089;SDS011;54880;50.986;6.990;2022-11-25T04:30:13;13.10;;;2.50;;
68089;SDS011;54880;50.986;6.990;2022-11-25T04:32:41;13.63;;;3.13;;
68089;SDS011;54880;50.986;6.990;2022-11-25T04:35:08;12.07;;;2.80;;
68089;SDS011;54880;50.986;6.990;2022-11-25T04:37:34;11.07;;;2.50;;
68089;SDS011;54880;50.986;6.990;2022-11-25T04:39:59;8.80;;;2.90;;
68089;SDS011;54880;50.986;6.990;2022-11-25T04:42:25;11.17;;;2.60;;
68089;SDS011;54880;50.986;6.990;2022-11-25T04:44:57;11.75;;;2.65;;
68089;SDS011;54880;50.986;6.990;2022-11-25T04:47:23;9.30;;;2.67;;
68089;SDS011;54880;50.986;6.990;2022-11-25T04:49:49;13.37;;;3.23;;
68089;SDS011;54880;50.986;6.990;2022-11-25T04:52:15;12.43;;;3.10;;
68089;SDS011;54880;50.986;6.990;2022-11-25T04:54:41;12.00;;;2.63;;
68089;SDS011;54880;50.986;6.990;2022-11-25T04:57:07;9.23;;;2.70;;
68089;SDS011;54880;50.986;6.990;2022-11-25T04:59:33;12.65;;;3.10;;
68089;SDS011;54880;50.986;6.990;2022-11-25T05:02:11;15.68;;;3.10;;
68089;SDS011;54880;50.986;6.990;2022-11-25T05:04:40;13.52;;;2.78;;
68089;SDS011;54880;50.986;6.990;2022-11-25T05:07:06;14.23;;;2.88;;
68089;SDS011;54880;50.986;6.990;2022-11-25T05:09:32;13.60;;;2.70;;
68089;SDS011;54880;50.986;6.990;2022-11-25T05:12:15;11.73;;;2.90;;
68089;SDS011;54880;50.986;6.990;2022-11-25T05:14:40;9.55;;;3.10;;
68089;SDS011;54880;50.986;6.990;2022-11-25T05:17:06;12.37;;;3.20;;
68089;SDS011;54880;50.986;6.990;2022-11-25T05:19:32;11.45;;;2.97;;
68089;SDS011;54880;50.986;6.990;2022-11-25T05:22:00;13.63;;;3.58;;
68089;SDS011;54880;50.986;6.990;2022-11-25T05:24:25;8.43;;;2.77;;
68089;SDS011;54880;50.986;6.990;2022-11-25T05:26:51;13.10;;;2.92;;
68089;SDS011;54880;50.986;6.990;2022-11-25T05:29:17;11.75;;;3.50;;
68089;SDS011;54880;50.986;6.990;2022-11-25T05:31:43;13.10;;;3.57;;
68089;SDS011;54880;50.986;6.990;2022-11-25T05:34:08;14.23;;;3.43;;
68089;SDS011;54880;50.986;6.990;2022-11-25T05:36:34;12.63;;;3.47;;
68089;SDS011;54880;50.986;6.990;2022-11-25T05:38:59;17.23;;;4.20;;
68089;SDS011;54880;50.986;6.990;2022-11-25T05:41:39;13.80;;;2.87;;
68089;SDS011;54880;50.986;6.990;2022-11-25T05:44:04;14.75;;;3.47;;
68089;SDS011;54880;50.986;6.990;2022-11-25T05:46:31;10.60;;;3.47;;
68089;SDS011;54880;50.986;6.990;2022-11-25T05:48:57;14.37;;;3.50;;
68089;SDS011;54880;50.986;6.990;2022-11-25T05:51:23;16.90;;;3.77;;
68089;SDS011;54880;50.986;6.990;2022-11-25T05:53:49;14.05;;;3.42;;
68089;SDS011;54880;50.986;6.990;2022-11-25T05:56:16;14.77;;;3.08;;
68089;SDS011;54880;50.986;6.990;2022-11-25T05:59:05;11.70;;;3.20;;
68089;SDS011;54880;50.986;6.990;2022-11-25T06:01:42;12.68;;;3.45;;
68089;SDS011;54880;50.986;6.990;2022-11-25T06:04:08;13.23;;;3.50;;
68089;SDS011;54880;50.986;6.990;2022-11-25T06:06:33;10.70;;;2.90;;
68089;SDS011;54880;50.986;6.990;2022-11-25T06:08:59;16.90;;;4.07;;
68089;SDS011;54880;50.986;6.990;2022-11-25T06:11:24;11.52;;;3.80;;
68089;SDS011;54880;50.986;6.990;2022-11-25T06:13:50;15.47;;;3.90;;
68089;SDS011;54880;50.986;6.990;2022-11-25T06:16:17;12.95;;;3.47;;
68089;SDS011;54880;50.986;6.990;2022-11-25T06:18:46;16.77;;;4.35;;
68089;SDS011;54880;50.986;6.990;2022-11-25T06:21:13;15.65;;;3.42;;
68089;SDS011;54880;50.986;6.990;2022-11-25T06:23:38;12.68;;;3.80;;
68089;SDS011;54880;50.986;6.990;2022-11-25T06:26:09;14.90;;;3.97;;
68089;SDS011;54880;50.986;6.990;2022-11-25T06:28:36;14.07;;;3.70;;
68089;SDS011;54880;50.986;6.990;2022-11-25T06:31:05;11.40;;;3.43;;
68089;SDS011;54880;50.986;6.990;2022-11-25T06:33:35;10.50;;;2.97;;
68089;SDS011;54880;50.986;6.990;2022-11-25T06:36:03;11.63;;;3.20;;
68089;SDS011;54880;50.986;6.990;2022-11-25T06:38:29;16.43;;;3.60;;
68089;SDS011;54880;50.986;6.990;2022-11-25T06:40:57;14.40;;;3.72;;
68089;SDS011;54880;50.986;6.990;2022-11-25T06:43:23;9.65;;;2.90;;
68089;SDS011;54880;50.986;6.990;2022-11-25T06:45:48;13.50;;;3.00;;
68089;SDS011;54880;50.986;6.990;2022-11-25T06:48:13;13.60;;;3.47;;
68089;SDS011;54880;50.986;6.990;2022-11-25T06:50:38;12.00;;;3.27;;
68089;SDS011;54880;50.986;6.990;2022-11-25T06:53:04;13.17;;;3.33;;
68089;SDS011;54880;50.986;6.990;2022-11-25T06:55:29;13.53;;;3.20;;
68089;SDS011;54880;50.986;6.990;2022-11-25T06:57:54;13.73;;;3.83;;
68089;SDS011;54880;50.986;6.990;2022-11-25T07:00:19;15.83;;;3.90;;
68089;SDS011;54880;50.986;6.990;2022-11-25T07:02:46;15.37;;;3.80;;
68089;SDS011;54880;50.986;6.990;2022-11-25T07:05:11;16.13;;;4.18;;
68089;SDS011;54880;50.986;6.990;2022-11-25T07:07:36;14.47;;;3.57;;
68089;SDS011;54880;50.986;6.990;2022-11-25T07:10:02;12.90;;;3.90;;
68089;SDS011;54880;50.986;6.990;2022-11-25T07:12:27;16.40;;;3.77;;
68089;SDS011;54880;50.986;6.990;2022-11-25T07:14:54;15.25;;;3.97;;
68089;SDS011;54880;50.986;6.990;2022-11-25T07:17:19;12.73;;;3.83;;
68089;SDS011;54880;50.986;6.990;2022-11-25T07:19:44;16.17;;;3.83;;
68089;SDS011;54880;50.986;6.990;2022-11-25T07:22:09;13.53;;;4.13;;
68089;SDS011;54880;50.986;6.990;2022-11-25T07:24:35;11.60;;;3.77;;
68089;SDS011;54880;50.986;6.990;2022-11-25T07:27:00;14.43;;;4.10;;
68089;SDS011;54880;50.986;6.990;2022-11-25T07:29:25;17.17;;;4.17;;
68089;SDS011;54880;50.986;6.990;2022-11-25T07:31:51;11.00;;;3.53;;
68089;SDS011;54880;50.986;6.990;2022-11-25T07:34:18;12.00;;;4.47;;
68089;SDS011;54880;50.986;6.990;2022-11-25T07:36:47;15.60;;;4.90;;
68089;SDS011;54880;50.986;6.990;2022-11-25T07:39:14;15.63;;;4.87;;
68089;SDS011;54880;50.986;6.990;2022-11-25T07:41:39;17.05;;;4.40;;
68089;SDS011;54880;50.986;6.990;2022-11-25T07:44:06;16.50;;;3.92;;
68089;SDS011;54880;50.986;6.990;2022-11-25T07:46:43;15.38;;;4.47;;
68089;SDS011;54880;50.986;6.990;2022-11-25T07:49:09;11.80;;;3.73;;
68089;SDS011;54880;50.986;6.990;2022-11-25T07:51:43;12.85;;;4.10;;
68089;SDS011;54880;50.986;6.990;2022-11-25T07:54:11;13.85;;;4.60;;
68089;SDS011;54880;50.986;6.990;2022-11-25T07:56:37;15.65;;;3.90;;
68089;SDS011;54880;50.986;6.990;2022-11-25T07:59:03;18.08;;;4.00;;
68089;SDS011;54880;50.986;6.990;2022-11-25T08:01:29;15.47;;;3.57;;
68089;SDS011;54880;50.986;6.990;2022-11-25T08:03:54;16.50;;;3.63;;
68089;SDS011;54880;50.986;6.990;2022-11-25T08:06:21;12.00;;;3.85;;
68089;SDS011;54880;50.986;6.990;2022-11-25T08:08:46;16.73;;;4.25;;
68089;SDS011;54880;50.986;6.990;2022-11-25T08:11:13;13.52;;;3.92;;
68089;SDS011;54880;50.986;6.990;2022-11-25T08:13:39;15.98;;;4.10;;
68089;SDS011;54880;50.986;6.990;2022-11-25T08:16:05;15.00;;;3.80;;
68089;SDS011;54880;50.986;6.990;2022-11-25T08:18:30;14.60;;;4.07;;
68089;SDS011;54880;50.986;6.990;2022-11-25T08:20:59;13.25;;;4.20;;
68089;SDS011;54880;50.986;6.990;2022-11-25T08:23:25;19.38;;;4.30;;
68089;SDS011;54880;50.986;6.990;2022-11-25T08:25:50;16.17;;;4.17;;
68089;SDS011;54880;50.986;6.990;2022-11-25T08:28:15;13.37;;;3.93;;
68089;SDS011;54880;50.986;6.990;2022-11-25T08:30:40;12.00;;;3.80;;
68089;SDS011;54880;50.986;6.990;2022-11-25T08:33:06;14.10;;;3.70;;
68089;SDS011;54880;50.986;6.990;2022-11-25T08:35:31;11.63;;;3.53;;
68089;SDS011;54880;50.986;6.990;2022-11-25T08:38:02;13.40;;;3.88;;
68089;SDS011;54880;50.986;6.990;2022-11-25T08:40:27;14.87;;;4.17;;
68089;SDS011;54880;50.986;6.990;2022-11-25T08:42:52;17.40;;;4.20;;
68089;SDS011;54880;50.986;6.990;2022-11-25T08:45:18;15.20;;;4.20;;
68089;SDS011;54880;50.986;6.990;2022-11-25T08:47:43;11.27;;;4.00;;
68089;SDS011;54880;50.986;6.990;2022-11-25T08:50:09;14.17;;;4.70;;
68089;SDS011;54880;50.986;6.990;2022-11-25T08:52:34;11.20;;;3.55;;
68089;SDS011;54880;50.986;6.990;2022-11-25T08:54:59;12.73;;;4.40;;
68089;SDS011;54880;50.986;6.990;2022-11-25T08:57:25;14.73;;;4.17;;
68089;SDS011;54880;50.986;6.990;2022-11-25T08:59:50;16.70;;;4.47;;
68089;SDS011;54880;50.986;6.990;2022-11-25T09:02:15;14.13;;;4.13;;
68089;SDS011;54880;50.986;6.990;2022-11-25T09:04:41;15.38;;;4.57;;
68089;SDS011;54880;50.986;6.990;2022-11-25T09:07:06;14.20;;;4.37;;
68089;SDS011;54880;50.986;6.990;2022-11-25T09:09:31;15.30;;;4.00;;
68089;SDS011;54880;50.986;6.990;2022-11-25T09:11:57;14.63;;;4.57;;
68089;SDS011;54880;50.986;6.990;2022-11-25T09:14:22;14.97;;;4.93;;
68089;SDS011;54880;50.986;6.990;2022-11-25T09:16:47;17.60;;;4.90;;
68089;SDS011;54880;50.986;6.990;2022-11-25T09:19:13;16.43;;;4.57;;
68089;SDS011;54880;50.986;6.990;2022-11-25T09:21:38;16.53;;;5.13;;
68089;SDS011;54880;50.986;6.990;2022-11-25T09:24:04;18.20;;;5.63;;
68089;SDS011;54880;50.986;6.990;2022-11-25T09:26:30;17.23;;;5.40;;
68089;SDS011;54880;50.986;6.990;2022-11-25T09:28:59;15.80;;;4.93;;
68089;SDS011;54880;50.986;6.990;2022-11-25T09:31:24;12.97;;;4.70;;
68089;SDS011;54880;50.986;6.990;2022-11-25T09:33:49;15.17;;;4.97;;
68089;SDS011;54880;50.986;6.990;2022-11-25T09:36:15;15.70;;;4.33;;
68089;SDS011;54880;50.986;6.990;2022-11-25T09:38:41;11.70;;;3.80;;
68089;SDS011;54880;50.986;6.990;2022-11-25T09:41:16;12.30;;;4.30;;
68089;SDS011;54880;50.986;6.990;2022-11-25T09:44:10;11.98;;;3.83;;
68089;SDS011;54880;50.986;6.990;2022-11-25T09:47:07;10.48;;;3.20;;
68089;SDS011;54880;50.986;6.990;2022-11-25T09:52:41;11.40;;;3.77;;
68089;SDS011;54880;50.986;6.990;2022-11-25T09:55:14;9.65;;;3.03;;
68089;SDS011;54880;50.986;6.990;2022-11-25T09:57:48;13.75;;;3.70;;
68089;SDS011;54880;50.986;6.990;2022-11-25T10:00:17;12.95;;;3.58;;
68089;SDS011;54880;50.986;6.990;2022-11-25T10:05:15;15.13;;;4.10;;
68089;SDS011;54880;50.986;6.990;2022-11-25T10:07:43;11.93;;;3.42;;
68089;SDS011;54880;50.986;6.990;2022-11-25T10:10:23;9.93;;;3.42;;
68089;SDS011;54880;50.986;6.990;2022-11-25T10:12:50;10.95;;;3.28;;
68089;SDS011;54880;50.986;6.990;2022-11-25T10:15:18;14.07;;;3.78;;
68089;SDS011;54880;50.986;6.990;2022-11-25T10:17:47;12.03;;;4.10;;
68089;SDS011;54880;50.986;6.990;2022-11-25T10:22:49;11.20;;;3.45;;
68089;SDS011;54880;50.986;6.990;2022-11-25T10:30:25;14.63;;;3.28;;
68089;SDS011;54880;50.986;6.990;2022-11-25T10:35:37;11.80;;;3.13;;
68089;SDS011;54880;50.986;6.990;2022-11-25T10:38:04;14.75;;;2.97;;
68089;SDS011;54880;50.986;6.990;2022-11-25T10:40:30;10.93;;;2.28;;
68089;SDS011;54880;50.986;6.990;2022-11-25T10:42:56;10.27;;;2.27;;
68089;SDS011;54880;50.986;6.990;2022-11-25T10:45:24;10.50;;;1.93;;
68089;SDS011;54880;50.986;6.990;2022-11-25T10:50:38;13.32;;;2.15;;
68089;SDS011;54880;50.986;6.990;2022-11-25T10:53:11;13.52;;;2.08;;
68089;SDS011;54880;50.986;6.990;2022-11-25T10:55:37;10.73;;;2.60;;
68089;SDS011;54880;50.986;6.990;2022-11-25T11:00:46;14.43;;;1.98;;
68089;SDS011;54880;50.986;6.990;2022-11-25T11:03:12;9.37;;;2.13;;
68089;SDS011;54880;50.986;6.990;2022-11-25T11:05:42;9.60;;;2.33;;
68089;SDS011;54880;50.986;6.990;2022-11-25T11:08:14;12.48;;;2.17;;
68089;SDS011;54880;50.986;6.990;2022-11-25T11:10:41;11.40;;;2.30;;
68089;SDS011;54880;50.986;6.990;2022-11-25T11:13:24;11.90;;;2.07;;
68089;SDS011;54880;50.986;6.990;2022-11-25T11:15:51;11.20;;;2.50;;
68089;SDS011;54880;50.986;6.990;2022-11-25T11:18:24;10.95;;;2.08;;
68089;SDS011;54880;50.986;6.990;2022-11-25T11:20:50;11.05;;;2.00;;
68089;SDS011;54880;50.986;6.990;2022-11-25T11:23:16;13.48;;;2.47;;
68089;SDS011;54880;50.986;6.990;2022-11-25T11:25:42;11.00;;;2.53;;
68089;SDS011;54880;50.986;6.990;2022-11-25T11:31:02;16.23;;;2.10;;
68089;SDS011;54880;50.986;6.990;2022-11-25T11:33:41;10.77;;;1.70;;
68089;SDS011;54880;50.986;6.990;2022-11-25T11:38:47;12.40;;;2.28;;
68089;SDS011;54880;50.986;6.990;2022-11-25T11:41:31;14.73;;;2.30;;
68089;SDS011;54880;50.986;6.990;2022-11-25T11:44:02;13.80;;;2.40;;
68089;SDS011;54880;50.986;6.990;2022-11-25T11:46:32;18.77;;;2.85;;
68089;SDS011;54880;50.986;6.990;2022-11-25T11:51:32;14.40;;;2.47;;
68089;SDS011;54880;50.986;6.990;2022-11-25T11:56:37;10.87;;;2.47;;
68089;SDS011;54880;50.986;6.990;2022-11-25T12:04:21;14.20;;;2.40;;
68089;SDS011;54880;50.986;6.990;2022-11-25T12:06:57;16.52;;;2.55;;
68089;SDS011;54880;50.986;6.990;2022-11-25T12:09:23;12.20;;;2.67;;
68089;SDS011;54880;50.986;6.990;2022-11-25T12:11:54;15.25;;;2.38;;
68089;SDS011;54880;50.986;6.990;2022-11-25T12:16:59;19.27;;;2.40;;
68089;SDS011;54880;50.986;6.990;2022-11-25T12:19:29;18.20;;;3.17;;
68089;SDS011;54880;50.986;6.990;2022-11-25T12:22:12;14.55;;;2.92;;
68089;SDS011;54880;50.986;6.990;2022-11-25T12:24:47;17.95;;;2.75;;
68089;SDS011;54880;50.986;6.990;2022-11-25T12:27:16;15.43;;;2.45;;
68089;SDS011;54880;50.986;6.990;2022-11-25T12:30:25;14.03;;;2.87;;
68089;SDS011;54880;50.986;6.990;2022-11-25T12:35:04;18.48;;;2.90;;
68089;SDS011;54880;50.986;6.990;2022-11-25T12:37:53;19.80;;;2.88;;
68089;SDS011;54880;50.986;6.990;2022-11-25T12:40:24;17.75;;;2.67;;
68089;SDS011;54880;50.986;6.990;2022-11-25T12:42:51;18.40;;;2.97;;
68089;SDS011;54880;50.986;6.990;2022-11-25T12:45:21;17.17;;;2.65;;
68089;SDS011;54880;50.986;6.990;2022-11-25T12:47:46;16.90;;;3.70;;
68089;SDS011;54880;50.986;6.990;2022-11-25T12:50:16;16.03;;;2.67;;
68089;SDS011;54880;50.986;6.990;2022-11-25T12:52:52;19.52;;;2.95;;
68089;SDS011;54880;50.986;6.990;2022-11-25T12:55:27;23.25;;;2.70;;
68089;SDS011;54880;50.986;6.990;2022-11-25T12:58:13;13.83;;;2.33;;
68089;SDS011;54880;50.986;6.990;2022-11-25T13:06:05;14.20;;;2.60;;
68089;SDS011;54880;50.986;6.990;2022-11-25T13:08:44;17.10;;;2.55;;
68089;SDS011;54880;50.986;6.990;2022-11-25T13:16:22;18.10;;;2.60;;
68089;SDS011;54880;50.986;6.990;2022-11-25T13:18:47;11.13;;;2.47;;
68089;SDS011;54880;50.986;6.990;2022-11-25T13:21:14;14.27;;;2.33;;
68089;SDS011;54880;50.986;6.990;2022-11-25T13:23:46;14.15;;;2.20;;
68089;SDS011;54880;50.986;6.990;2022-11-25T13:28:53;14.57;;;2.55;;
68089;SDS011;54880;50.986;6.990;2022-11-25T13:31:22;16.58;;;2.42;;
68089;SDS011;54880;50.986;6.990;2022-11-25T13:36:20;13.97;;;1.90;;
68089;SDS011;54880;50.986;6.990;2022-11-25T13:46:39;11.80;;;2.28;;
68089;SDS011;54880;50.986;6.990;2022-11-25T13:49:06;9.60;;;2.22;;
68089;SDS011;54880;50.986;6.990;2022-11-25T13:51:51;9.98;;;2.10;;
68089;SDS011;54880;50.986;6.990;2022-11-25T13:54:18;14.30;;;2.13;;
68089;SDS011;54880;50.986;6.990;2022-11-25T13:56:57;11.32;;;2.13;;
68089;SDS011;54880;50.986;6.990;2022-11-25T13:59:57;15.32;;;3.05;;
68089;SDS011;54880;50.986;6.990;2022-11-25T14:04:58;12.77;;;2.00;;
68089;SDS011;54880;50.986;6.990;2022-11-25T14:20:30;11.93;;;2.47;;
68089;SDS011;54880;50.986;6.990;2022-11-25T14:25:51;11.32;;;1.95;;
68089;SDS011;54880;50.986;6.990;2022-11-25T14:30:46;13.10;;;2.40;;
68089;SDS011;54880;50.986;6.990;2022-11-25T14:33:13;13.05;;;2.60;;
68089;SDS011;54880;50.986;6.990;2022-11-25T14:35:42;11.80;;;2.47;;
68089;SDS011;54880;50.986;6.990;2022-11-25T14:38:17;14.48;;;2.30;;
68089;SDS011;54880;50.986;6.990;2022-11-25T14:40:45;10.07;;;2.13;;
68089;SDS011;54880;50.986;6.990;2022-11-25T14:43:14;13.98;;;2.40;;
68089;SDS011;54880;50.986;6.990;2022-11-25T14:45:40;10.00;;;2.47;;
68089;SDS011;54880;50.986;6.990;2022-11-25T14:48:16;11.37;;;2.43;;
68089;SDS011;54880;50.986;6.990;2022-11-25T14:51:00;12.87;;;2.87;;
68089;SDS011;54880;50.986;6.990;2022-11-25T14:53:26;11.52;;;2.25;;
68089;SDS011;54880;50.986;6.990;2022-11-25T14:55:52;11.77;;;2.38;;
68089;SDS011;54880;50.986;6.990;2022-11-25T14:58:20;16.33;;;2.42;;
68089;SDS011;54880;50.986;6.990;2022-11-25T15:00:50;13.37;;;2.60;;
68089;SDS011;54880;50.986;6.990;2022-11-25T15:03:16;11.40;;;2.40;;
68089;SDS011;54880;50.986;6.990;2022-11-25T15:05:42;13.05;;;2.80;;
68089;SDS011;54880;50.986;6.990;2022-11-25T15:08:14;12.13;;;2.43;;
68089;SDS011;54880;50.986;6.990;2022-11-25T15:10:43;14.90;;;2.63;;
68089;SDS011;54880;50.986;6.990;2022-11-25T15:15:44;12.63;;;2.58;;
68089;SDS011;54880;50.986;6.990;2022-11-25T15:18:12;17.88;;;3.30;;
68089;SDS011;54880;50.986;6.990;2022-11-25T15:20:43;14.00;;;2.43;;
68089;SDS011;54880;50.986;6.990;2022-11-25T15:23:09;11.95;;;2.47;;
68089;SDS011;54880;50.986;6.990;2022-11-25T15:25:46;17.00;;;2.30;;
68089;SDS011;54880;50.986;6.990;2022-11-25T15:28:14;17.88;;;2.42;;
68089;SDS011;54880;50.986;6.990;2022-11-25T15:30:39;15.63;;;2.53;;
68089;SDS011;54880;50.986;6.990;2022-11-25T15:33:05;14.13;;;2.23;;
68089;SDS011;54880;50.986;6.990;2022-11-25T15:35:32;12.70;;;2.17;;
68089;SDS011;54880;50.986;6.990;2022-11-25T15:37:57;11.05;;;2.00;;
68089;SDS011;54880;50.986;6.990;2022-11-25T15:42:55;10.20;;;1.97;;
68089;SDS011;54880;50.986;6.990;2022-11-25T15:45:20;12.38;;;2.00;;
68089;SDS011;54880;50.986;6.990;2022-11-25T15:47:46;18.47;;;4.60;;
68089;SDS011;54880;50.986;6.990;2022-11-25T15:50:22;14.23;;;2.08;;
68089;SDS011;54880;50.986;6.990;2022-11-25T15:52:49;15.33;;;2.80;;
68089;SDS011;54880;50.986;6.990;2022-11-25T15:57:43;11.73;;;2.80;;
68089;SDS011;54880;50.986;6.990;2022-11-25T16:00:17;15.50;;;2.97;;
68089;SDS011;54880;50.986;6.990;2022-11-25T16:07:36;19.97;;;3.23;;
68089;SDS011;54880;50.986;6.990;2022-11-25T16:10:01;13.63;;;2.88;;
68089;SDS011;54880;50.986;6.990;2022-11-25T16:12:26;13.90;;;3.80;;
68089;SDS011;54880;50.986;6.990;2022-11-25T16:14:52;13.43;;;2.77;;
68089;SDS011;54880;50.986;6.990;2022-11-25T16:17:17;15.63;;;3.10;;
68089;SDS011;54880;50.986;6.990;2022-11-25T16:19:43;11.10;;;2.83;;
68089;SDS011;54880;50.986;6.990;2022-11-25T16:22:16;15.05;;;2.95;;
68089;SDS011;54880;50.986;6.990;2022-11-25T16:24:46;18.85;;;3.10;;